Time;durP1;ratioP1;P1;durP2;ratioP2;P2;SDS_P1;SDS_P2;PMS_P1;PMS_P2;Temp;Humidity;BMP_temperature;BMP_pressure;BME280_temperature;BME280_humidity;BME280_pressure;Samples;Min_cycle;Max_cycle;Signal;HPM_P1;HPM_P2
2022/11/12 00:00:17;;;;;;;6.25;4.78;;;22.70;55.30;;;;;;5023257;28;20043;-63
2022/11/12 00:02:43;;;;;;;5.93;4.80;;;22.70;55.30;;;;;;5018781;28;20029;-63
2022/11/12 00:05:08;;;;;;;6.07;4.72;;;22.70;55.30;;;;;;5024252;28;20043;-63
2022/11/12 00:07:34;;;;;;;6.60;4.80;;;22.70;55.30;;;;;;5032748;28;20468;-64
2022/11/12 00:10:00;;;;;;;6.28;4.80;;;22.70;55.40;;;;;;5042256;28;20154;-63
2022/11/12 00:12:25;;;;;;;5.75;4.70;;;22.70;55.40;;;;;;5041542;28;20021;-63
2022/11/12 00:14:51;;;;;;;6.13;4.82;;;22.60;55.40;;;;;;5026925;28;20034;-62
2022/11/12 00:17:16;;;;;;;6.03;4.93;;;22.60;55.40;;;;;;5034278;28;20026;-63
2022/11/12 00:19:42;;;;;;;5.57;4.43;;;22.60;55.40;;;;;;5039264;28;20025;-64
2022/11/12 00:22:08;;;;;;;6.03;4.80;;;22.60;55.50;;;;;;5038132;28;20099;-62
2022/11/12 00:24:33;;;;;;;5.35;4.55;;;22.50;55.50;;;;;;5034574;28;20369;-64
2022/11/12 00:26:59;;;;;;;6.53;5.07;;;22.50;55.60;;;;;;5032790;28;20493;-65
2022/11/12 00:29:25;;;;;;;6.45;5.10;;;22.50;55.60;;;;;;5042291;28;20025;-63
2022/11/12 00:31:50;;;;;;;6.60;4.97;;;22.50;55.70;;;;;;5040965;28;20034;-65
2022/11/12 00:34:16;;;;;;;6.38;4.90;;;22.40;55.70;;;;;;5035465;28;20032;-64
2022/11/12 00:36:41;;;;;;;5.50;4.75;;;22.40;55.80;;;;;;5028042;28;20079;-63
2022/11/12 00:39:07;;;;;;;7.13;4.65;;;22.40;55.80;;;;;;5023644;28;20033;-64
2022/11/12 00:41:33;;;;;;;5.75;4.78;;;22.40;55.80;;;;;;5028030;28;20557;-63
2022/11/12 00:43:58;;;;;;;6.03;5.07;;;22.40;55.80;;;;;;5036975;28;20102;-63
2022/11/12 00:46:24;;;;;;;5.60;4.57;;;22.30;55.80;;;;;;5033895;28;20128;-62
2022/11/12 00:48:49;;;;;;;6.53;4.85;;;22.30;55.80;;;;;;5029112;28;20022;-63
2022/11/12 00:51:15;;;;;;;6.30;4.97;;;22.30;55.80;;;;;;5029413;28;20038;-63
2022/11/12 00:53:41;;;;;;;5.85;4.57;;;22.20;55.80;;;;;;5027785;28;20025;-63
2022/11/12 00:56:07;;;;;;;6.78;5.18;;;22.20;55.90;;;;;;5036031;28;20465;-62
2022/11/12 00:58:35;;;;;;;6.65;5.32;;;22.20;55.90;;;;;;5045428;28;20448;-63
2022/11/12 01:01:10;;;;;;;5.80;4.80;;;22.20;55.90;;;;;;5036345;28;20437;-63
2022/11/12 01:03:37;;;;;;;6.13;4.68;;;22.20;56.00;;;;;;5037648;28;20021;-64
2022/11/12 01:06:12;;;;;;;6.72;4.72;;;22.10;55.90;;;;;;5039847;28;20029;-63
2022/11/12 01:08:38;;;;;;;5.85;4.43;;;22.10;56.00;;;;;;5037269;28;20032;-63
2022/11/12 01:11:11;;;;;;;6.18;4.90;;;22.10;56.00;;;;;;5036557;28;20464;-63
2022/11/12 01:13:38;;;;;;;6.18;4.70;;;22.10;56.00;;;;;;5029593;28;20017;-65
2022/11/12 01:16:13;;;;;;;7.07;5.18;;;22.10;56.10;;;;;;5024932;28;20030;-64
2022/11/12 01:18:39;;;;;;;6.28;4.65;;;22.10;56.10;;;;;;5033323;28;20028;-62
2022/11/12 01:21:06;;;;;;;6.45;4.85;;;22.10;56.10;;;;;;5039792;28;20380;-63
2022/11/12 01:23:33;;;;;;;5.68;4.53;;;22.00;56.10;;;;;;5032455;28;20026;-62
2022/11/12 01:26:07;;;;;;;5.85;4.70;;;22.00;56.10;;;;;;5032330;28;20472;-64
2022/11/12 01:28:33;;;;;;;6.38;4.65;;;22.00;56.10;;;;;;5031228;28;20032;-62
2022/11/12 01:31:09;;;;;;;5.60;4.28;;;22.00;56.20;;;;;;5028616;28;20116;-62
2022/11/12 01:33:35;;;;;;;6.07;4.70;;;22.00;56.20;;;;;;5039126;28;20498;-64
2022/11/12 01:36:01;;;;;;;5.72;4.53;;;21.90;56.20;;;;;;5034994;28;20049;-63
2022/11/12 01:38:27;;;;;;;5.30;4.40;;;21.90;56.20;;;;;;5036071;28;20029;-63
2022/11/12 01:40:52;;;;;;;5.60;4.30;;;21.90;56.30;;;;;;5035387;28;20025;-63
2022/11/12 01:43:18;;;;;;;5.57;4.43;;;21.90;56.20;;;;;;5030737;28;20089;-64
2022/11/12 01:45:48;;;;;;;5.45;4.28;;;21.90;56.20;;;;;;5035410;28;20032;-63
2022/11/12 01:48:33;;;;;;;5.45;4.05;;;21.90;56.20;;;;;;5039823;28;20056;-63
2022/11/12 01:50:59;;;;;;;5.28;4.28;;;21.90;56.20;;;;;;5033584;28;20026;-62
2022/11/12 01:53:27;;;;;;;5.38;4.28;;;21.90;56.30;;;;;;5037888;28;20131;-63
2022/11/12 01:55:55;;;;;;;5.32;4.00;;;21.90;56.30;;;;;;5038375;28;20069;-62
2022/11/12 01:58:24;;;;;;;5.95;4.50;;;21.80;56.30;;;;;;5033604;28;20436;-64
2022/11/12 02:00:50;;;;;;;6.38;3.85;;;21.80;56.30;;;;;;5036527;28;20045;-62
2022/11/12 02:03:22;;;;;;;5.25;4.18;;;21.80;56.30;;;;;;5032185;28;20067;-63
2022/11/12 02:05:53;;;;;;;5.40;3.88;;;21.80;56.20;;;;;;5032473;28;20371;-62
2022/11/12 02:08:21;;;;;;;5.32;4.03;;;21.80;56.30;;;;;;5036966;28;20059;-63
2022/11/12 02:10:47;;;;;;;5.50;4.25;;;21.80;56.30;;;;;;5033629;28;20025;-64
2022/11/12 02:15:57;;;;;;;5.40;4.18;;;21.70;56.30;;;;;;5039623;28;20041;-64
2022/11/12 02:18:23;;;;;;;5.00;3.80;;;21.70;56.30;;;;;;5040877;28;20035;-64
2022/11/12 02:20:54;;;;;;;5.07;3.92;;;21.70;56.30;;;;;;5026460;28;20108;-63
2022/11/12 02:23:20;;;;;;;4.55;3.70;;;21.70;56.30;;;;;;5036988;28;20024;-63
2022/11/12 02:25:45;;;;;;;4.25;3.55;;;21.70;56.30;;;;;;5036889;28;20053;-62
2022/11/12 02:28:11;;;;;;;4.32;3.50;;;21.70;56.30;;;;;;5031204;28;20070;-63
2022/11/12 02:30:44;;;;;;;4.47;3.55;;;21.70;56.40;;;;;;5027715;28;20041;-62
2022/11/12 02:33:09;;;;;;;4.55;3.42;;;21.70;56.40;;;;;;5023679;28;20053;-65
2022/11/12 02:35:35;;;;;;;5.15;3.97;;;21.70;56.40;;;;;;5025517;28;20061;-64
2022/11/12 02:38:01;;;;;;;4.38;3.58;;;21.60;56.30;;;;;;5032070;28;20021;-63
2022/11/12 02:40:27;;;;;;;5.18;4.10;;;21.60;56.30;;;;;;5037792;28;20029;-65
2022/11/12 02:42:52;;;;;;;4.50;3.38;;;21.60;56.40;;;;;;5042017;28;20025;-64
2022/11/12 02:45:18;;;;;;;4.70;3.72;;;21.60;56.40;;;;;;5034173;28;20033;-63
2022/11/12 02:47:45;;;;;;;4.78;3.65;;;21.60;56.40;;;;;;5033866;28;20037;-63
2022/11/12 02:50:11;;;;;;;4.85;3.50;;;21.60;56.40;;;;;;5035774;28;20029;-66
2022/11/12 02:52:38;;;;;;;4.68;3.42;;;21.60;56.40;;;;;;5046673;28;20028;-65
2022/11/12 02:55:06;;;;;;;4.60;3.50;;;21.60;56.40;;;;;;5039420;28;20034;-63
2022/11/12 02:57:31;;;;;;;4.82;3.60;;;21.60;56.40;;;;;;5028592;28;20025;-63
2022/11/12 02:59:57;;;;;;;4.47;3.63;;;21.50;56.40;;;;;;5030257;28;20472;-63
2022/11/12 03:02:23;;;;;;;5.40;4.00;;;21.60;56.50;;;;;;5040717;28;20124;-63
2022/11/12 03:04:48;;;;;;;4.15;3.40;;;21.50;56.40;;;;;;5032699;28;20039;-64
2022/11/12 03:07:14;;;;;;;4.80;3.75;;;21.50;56.40;;;;;;5033126;28;20029;-63
2022/11/12 03:09:40;;;;;;;4.50;3.30;;;21.50;56.50;;;;;;5029075;28;20033;-64
2022/11/12 03:12:06;;;;;;;4.25;3.38;;;21.50;56.50;;;;;;5025949;28;20033;-64
2022/11/12 03:14:31;;;;;;;4.95;3.53;;;21.50;56.50;;;;;;5026392;28;20040;-63
2022/11/12 03:16:57;;;;;;;5.05;3.53;;;21.50;56.50;;;;;;5036120;28;20103;-63
2022/11/12 03:19:22;;;;;;;5.05;3.65;;;21.50;56.50;;;;;;5033417;28;20391;-63
2022/11/12 03:21:48;;;;;;;4.70;3.60;;;21.50;56.50;;;;;;5017860;28;20022;-63
2022/11/12 03:24:14;;;;;;;4.50;3.30;;;21.50;56.50;;;;;;5030244;28;20036;-64
2022/11/12 03:26:39;;;;;;;4.10;3.08;;;21.40;56.50;;;;;;5036415;28;20384;-65
2022/11/12 03:29:05;;;;;;;4.53;3.17;;;21.40;56.50;;;;;;5038043;28;20025;-63
2022/11/12 03:31:30;;;;;;;3.70;3.20;;;21.40;56.50;;;;;;5037106;28;20051;-64
2022/11/12 03:33:56;;;;;;;4.32;3.28;;;21.40;56.50;;;;;;5034593;28;20037;-64
2022/11/12 03:36:21;;;;;;;4.07;3.00;;;21.40;56.50;;;;;;5033153;28;20026;-63
2022/11/12 03:38:47;;;;;;;4.53;3.40;;;21.40;56.50;;;;;;5036690;28;20056;-63
2022/11/12 03:41:13;;;;;;;5.10;3.50;;;21.40;56.50;;;;;;5037237;28;20388;-64
2022/11/12 03:43:38;;;;;;;3.88;3.00;;;21.40;56.50;;;;;;5029922;28;20514;-63
2022/11/12 03:46:04;;;;;;;4.53;3.30;;;21.40;56.50;;;;;;5031270;28;20046;-63
2022/11/12 03:48:30;;;;;;;3.80;3.00;;;21.40;56.50;;;;;;5027183;28;20385;-64
2022/11/12 03:50:59;;;;;;;3.95;3.28;;;21.40;56.50;;;;;;5029625;28;20040;-63
2022/11/12 03:53:25;;;;;;;4.30;3.00;;;21.40;56.50;;;;;;5034990;28;20021;-63
2022/11/12 03:55:51;;;;;;;4.45;3.50;;;21.30;56.50;;;;;;5033749;28;20508;-63
2022/11/12 03:58:16;;;;;;;3.90;2.83;;;21.40;56.60;;;;;;5037330;28;20033;-65
2022/11/12 04:00:42;;;;;;;3.83;2.92;;;21.30;56.50;;;;;;5039817;28;20025;-64
2022/11/12 04:03:07;;;;;;;4.07;3.15;;;21.30;56.50;;;;;;5037855;28;20090;-63
2022/11/12 04:08:36;;;;;;;4.10;3.10;;;21.30;56.50;;;;;;5040731;28;20179;-64
2022/11/12 04:11:06;;;;;;;4.45;3.28;;;21.30;56.60;;;;;;5035961;28;20314;-65
2022/11/12 04:13:32;;;;;;;3.80;2.83;;;21.30;56.60;;;;;;5032569;28;20054;-64
2022/11/12 04:21:55;;;;;;;3.42;2.67;;;21.30;56.70;;;;;;5032535;28;20076;-63
2022/11/12 04:27:18;;;;;;;3.77;2.90;;;21.30;56.70;;;;;;5038720;28;20131;-65
2022/11/12 04:32:31;;;;;;;3.53;2.80;;;21.20;56.60;;;;;;5032886;28;20068;-65
2022/11/12 04:34:56;;;;;;;3.30;2.40;;;21.20;56.60;;;;;;5046074;28;20029;-63
2022/11/12 04:37:24;;;;;;;3.30;2.67;;;21.20;56.60;;;;;;5043653;28;20140;-63
2022/11/12 04:39:50;;;;;;;4.13;2.80;;;21.20;56.60;;;;;;5037690;28;20038;-64
2022/11/12 04:45:02;;;;;;;3.80;2.67;;;21.30;56.70;;;;;;5038605;28;20393;-64
2022/11/12 04:47:49;;;;;;;3.83;2.70;;;21.20;56.60;;;;;;5038963;28;20523;-64
2022/11/12 04:50:17;;;;;;;3.65;2.83;;;21.20;56.60;;;;;;5037441;28;20040;-65
2022/11/12 04:52:43;;;;;;;3.58;2.50;;;21.30;56.60;;;;;;5032400;28;20026;-63
2022/11/12 04:55:09;;;;;;;3.00;2.30;;;21.30;56.60;;;;;;5024251;28;20036;-64
2022/11/12 04:57:36;;;;;;;3.17;2.50;;;21.30;56.60;;;;;;5029974;28;20780;-63
2022/11/12 05:00:03;;;;;;;3.45;2.35;;;21.30;56.60;;;;;;5024496;28;20025;-64
2022/11/12 05:02:29;;;;;;;3.22;2.40;;;21.20;56.60;;;;;;5035134;28;20060;-64
2022/11/12 05:04:55;;;;;;;2.83;2.20;;;21.30;56.70;;;;;;5033724;28;20061;-64
2022/11/12 05:07:20;;;;;;;3.75;2.63;;;21.20;56.60;;;;;;5037095;28;20583;-63
2022/11/12 05:09:46;;;;;;;2.90;2.20;;;21.20;56.50;;;;;;5033587;28;20034;-64
2022/11/12 05:12:12;;;;;;;3.35;2.30;;;21.30;56.60;;;;;;5041958;28;20494;-63
2022/11/12 05:14:37;;;;;;;3.30;2.30;;;21.30;56.60;;;;;;5042098;28;20034;-64
2022/11/12 05:17:04;;;;;;;3.13;2.30;;;21.20;56.50;;;;;;5038342;28;20040;-64
2022/11/12 05:19:29;;;;;;;3.20;2.25;;;21.20;56.50;;;;;;5031730;28;20481;-64
2022/11/12 05:22:04;;;;;;;3.35;2.38;;;21.30;56.60;;;;;;5036332;28;20059;-63
2022/11/12 05:24:34;;;;;;;2.97;2.08;;;21.20;56.50;;;;;;5034159;28;20108;-64
2022/11/12 05:27:00;;;;;;;2.80;2.10;;;21.30;56.50;;;;;;5037106;28;20025;-63
2022/11/12 05:29:25;;;;;;;3.30;2.15;;;21.20;56.50;;;;;;5033291;28;20022;-63
2022/11/12 05:31:51;;;;;;;3.03;1.98;;;21.20;56.50;;;;;;5024133;28;20041;-63
2022/11/12 05:34:17;;;;;;;2.92;2.20;;;21.20;56.50;;;;;;5026353;28;20388;-63
2022/11/12 05:36:42;;;;;;;3.47;2.15;;;21.20;56.50;;;;;;5032930;28;20044;-64
2022/11/12 05:39:08;;;;;;;2.95;2.10;;;21.20;56.50;;;;;;5038165;28;20500;-64
2022/11/12 05:41:33;;;;;;;2.45;1.90;;;21.20;56.50;;;;;;5035467;28;20040;-63
2022/11/12 05:43:59;;;;;;;2.80;2.10;;;21.20;56.50;;;;;;5035788;28;20025;-63
2022/11/12 05:46:25;;;;;;;2.88;2.00;;;21.20;56.50;;;;;;5032347;28;20025;-63
2022/11/12 05:48:50;;;;;;;2.90;2.00;;;21.20;56.50;;;;;;5037772;28;20027;-64
2022/11/12 05:51:16;;;;;;;2.65;2.00;;;21.20;56.50;;;;;;5035516;28;20136;-65
2022/11/12 05:53:42;;;;;;;3.00;2.17;;;21.20;56.60;;;;;;5037043;28;20112;-63
2022/11/12 05:56:09;;;;;;;2.90;2.10;;;21.20;56.50;;;;;;5037484;28;20066;-64
2022/11/12 05:58:35;;;;;;;2.72;1.95;;;21.20;56.60;;;;;;5035238;28;20141;-63
2022/11/12 06:01:02;;;;;;;2.55;1.75;;;21.20;56.60;;;;;;5031710;28;20064;-64
2022/11/12 06:03:28;;;;;;;2.78;2.03;;;21.20;56.60;;;;;;5037576;28;20496;-63
2022/11/12 06:05:53;;;;;;;2.72;1.90;;;21.20;57.10;;;;;;5038262;28;20161;-64
2022/11/12 06:08:19;;;;;;;2.47;1.88;;;21.20;56.60;;;;;;5027885;28;20029;-63
2022/11/12 06:10:48;;;;;;;2.90;1.92;;;21.20;57.10;;;;;;5031992;28;20025;-63
2022/11/12 06:13:14;;;;;;;;;;;21.10;56.60;;;;;;5034362;28;20454;-63
2022/11/12 06:15:40;;;;;;;2.80;2.03;;;21.20;56.60;;;;;;5032416;28;20004;-63
2022/11/12 06:18:06;;;;;;;2.85;2.00;;;21.10;56.60;;;;;;5040714;28;20514;-64
2022/11/12 06:20:32;;;;;;;2.65;1.83;;;21.10;56.60;;;;;;5037591;28;20076;-64
2022/11/12 06:22:58;;;;;;;2.50;1.77;;;21.20;56.60;;;;;;5032156;28;20080;-64
2022/11/12 06:25:23;;;;;;;2.40;1.63;;;21.10;56.60;;;;;;5033300;28;20048;-65
2022/11/12 06:27:49;;;;;;;2.10;1.67;;;21.10;57.20;;;;;;5036749;28;20029;-63
2022/11/12 06:30:15;;;;;;;2.40;1.80;;;21.10;56.60;;;;;;5039220;28;20025;-63
2022/11/12 06:32:40;;;;;;;2.63;2.00;;;21.10;56.70;;;;;;5032072;28;20940;-63
2022/11/12 06:35:06;;;;;;;2.30;1.80;;;21.10;56.70;;;;;;5027635;28;20038;-63
2022/11/12 06:37:32;;;;;;;2.40;1.70;;;21.10;56.70;;;;;;5030757;28;20026;-64
2022/11/12 06:39:57;;;;;;;2.60;1.80;;;21.10;56.70;;;;;;5044568;28;20045;-63
2022/11/12 06:42:23;;;;;;;2.67;2.00;;;21.10;56.70;;;;;;5037652;28;20393;-63
2022/11/12 06:44:49;;;;;;;2.50;1.80;;;21.10;56.70;;;;;;5034165;28;20098;-63
2022/11/12 06:47:14;;;;;;;2.40;1.60;;;21.10;56.70;;;;;;5038399;28;20033;-64
2022/11/12 06:49:40;;;;;;;2.40;1.75;;;21.10;56.70;;;;;;5023601;28;20482;-63
2022/11/12 06:52:06;;;;;;;2.33;1.63;;;21.10;56.70;;;;;;5032127;28;20043;-63
2022/11/12 06:54:31;;;;;;;2.40;1.80;;;21.10;56.70;;;;;;5030040;28;20026;-64
2022/11/12 06:56:57;;;;;;;2.60;1.63;;;21.10;56.70;;;;;;5038507;28;20057;-64
2022/11/12 06:59:22;;;;;;;2.78;1.80;;;21.10;56.80;;;;;;5034747;28;20498;-64
2022/11/12 07:01:48;;;;;;;2.88;1.80;;;21.00;56.70;;;;;;5033210;28;20045;-64
2022/11/12 07:04:13;;;;;;;2.33;1.67;;;21.00;56.70;;;;;;5036639;28;20091;-64
2022/11/12 07:06:39;;;;;;;2.38;1.65;;;21.10;56.70;;;;;;5034406;28;20112;-64
2022/11/12 07:09:05;;;;;;;2.78;1.90;;;21.00;56.70;;;;;;5031601;28;20037;-64
2022/11/12 07:11:31;;;;;;;2.58;1.70;;;21.00;56.70;;;;;;5031219;28;20489;-64
2022/11/12 07:13:57;;;;;;;2.38;1.67;;;21.00;56.70;;;;;;5031420;28;20108;-64
2022/11/12 07:16:22;;;;;;;2.72;1.80;;;21.00;56.80;;;;;;5033605;28;20476;-64
2022/11/12 07:18:48;;;;;;;2.40;1.73;;;21.00;56.70;;;;;;5043307;28;20064;-63
2022/11/12 07:21:19;;;;;;;2.03;1.50;;;21.00;56.70;;;;;;5032621;28;20044;-65
2022/11/12 07:23:46;;;;;;;2.58;1.70;;;21.00;56.80;;;;;;5035076;28;20512;-64
2022/11/12 07:26:14;;;;;;;2.40;1.63;;;21.00;56.80;;;;;;5029598;28;20369;-64
2022/11/12 07:28:40;;;;;;;3.10;1.80;;;21.00;56.80;;;;;;5031176;28;20029;-64
2022/11/12 07:31:09;;;;;;;2.22;1.60;;;21.00;56.80;;;;;;5029626;28;20049;-64
2022/11/12 07:33:35;;;;;;;2.08;1.50;;;21.00;56.80;;;;;;5031891;28;20138;-64
2022/11/12 07:36:08;;;;;;;2.05;1.45;;;21.00;56.80;;;;;;5045583;28;20136;-64
2022/11/12 07:38:36;;;;;;;2.20;1.60;;;21.00;56.80;;;;;;5038582;28;20038;-63
2022/11/12 07:41:07;;;;;;;2.22;1.42;;;21.00;56.80;;;;;;5040727;28;20466;-64
2022/11/12 07:43:35;;;;;;;2.00;1.42;;;21.00;56.90;;;;;;5036411;28;20026;-65
2022/11/12 07:46:09;;;;;;;2.00;1.40;;;21.00;56.90;;;;;;5034765;28;20029;-64
2022/11/12 07:48:36;;;;;;;2.10;1.55;;;21.00;57.40;;;;;;5035623;28;20112;-64
2022/11/12 07:51:04;;;;;;;2.20;1.52;;;21.00;56.90;;;;;;5035536;28;20137;-64
2022/11/12 07:53:30;;;;;;;2.15;1.50;;;21.00;56.90;;;;;;5035049;28;20021;-64
2022/11/12 07:55:59;;;;;;;2.00;1.50;;;21.00;56.90;;;;;;5045319;28;20092;-64
2022/11/12 07:58:26;;;;;;;2.13;1.42;;;21.00;57.00;;;;;;5037470;28;20518;-63
2022/11/12 08:00:52;;;;;;;2.10;1.48;;;20.90;56.90;;;;;;5037132;28;20109;-64
2022/11/12 08:03:19;;;;;;;1.92;1.40;;;21.00;57.00;;;;;;5037799;28;20037;-64
2022/11/12 08:05:45;;;;;;;2.13;1.52;;;20.90;56.90;;;;;;5031182;28;20034;-64
2022/11/12 08:08:10;;;;;;;2.00;1.40;;;20.90;57.00;;;;;;5033491;28;20037;-64
2022/11/12 08:10:37;;;;;;;2.20;1.45;;;21.00;57.00;;;;;;5036603;28;20029;-64
2022/11/12 08:13:03;;;;;;;2.03;1.52;;;20.90;57.00;;;;;;5041279;28;20468;-64
2022/11/12 08:15:29;;;;;;;2.33;1.40;;;20.90;57.00;;;;;;5042147;28;20036;-65
2022/11/12 08:17:55;;;;;;;2.45;1.50;;;20.90;57.00;;;;;;5042706;28;20546;-64
2022/11/12 08:20:21;;;;;;;1.88;1.30;;;20.90;57.00;;;;;;5034103;28;20124;-64
2022/11/12 08:22:47;;;;;;;2.08;1.52;;;20.90;57.00;;;;;;5039939;28;20487;-64
2022/11/12 08:25:13;;;;;;;2.00;1.40;;;20.90;57.00;;;;;;5039161;28;20476;-64
2022/11/12 08:27:39;;;;;;;2.17;1.50;;;20.90;57.00;;;;;;5039320;28;20058;-64
2022/11/12 08:30:05;;;;;;;1.80;1.38;;;20.90;57.10;;;;;;5039267;28;20029;-64
2022/11/12 08:32:31;;;;;;;2.33;1.60;;;20.90;57.10;;;;;;5038715;28;20117;-64
2022/11/12 08:34:56;;;;;;;2.10;1.50;;;20.90;57.00;;;;;;5038620;28;20129;-63
2022/11/12 08:37:22;;;;;;;1.52;1.25;;;20.90;57.10;;;;;;5029328;28;20129;-64
2022/11/12 08:39:48;;;;;;;2.10;1.50;;;20.90;57.10;;;;;;5038016;28;20483;-65
2022/11/12 08:42:13;;;;;;;2.40;1.50;;;20.90;57.10;;;;;;5032312;28;20037;-64
2022/11/12 08:44:39;;;;;;;2.28;1.42;;;20.90;57.10;;;;;;5031963;28;20029;-65
2022/11/12 08:47:04;;;;;;;2.30;1.50;;;20.90;57.10;;;;;;5037777;28;20420;-64
2022/11/12 08:49:30;;;;;;;1.73;1.30;;;20.90;57.10;;;;;;5034852;28;20044;-63
2022/11/12 08:51:56;;;;;;;2.38;1.70;;;20.90;57.20;;;;;;5044981;28;20589;-63
2022/11/12 08:54:22;;;;;;;1.60;1.20;;;20.90;57.20;;;;;;5045214;28;20383;-64
2022/11/12 08:56:48;;;;;;;2.10;1.38;;;20.80;57.10;;;;;;5032728;28;20032;-65
2022/11/12 08:59:14;;;;;;;1.90;1.40;;;20.80;57.10;;;;;;5037230;28;20029;-64
2022/11/12 09:01:39;;;;;;;2.10;1.50;;;20.80;57.10;;;;;;5036537;28;20041;-64
2022/11/12 09:04:05;;;;;;;2.28;1.48;;;20.80;57.10;;;;;;5037973;28;20031;-64
2022/11/12 09:06:30;;;;;;;2.63;1.60;;;20.80;57.20;;;;;;5038581;28;20531;-64
2022/11/12 09:08:56;;;;;;;2.90;1.60;;;20.80;57.10;;;;;;5024209;28;20029;-63
2022/11/12 09:11:22;;;;;;;2.08;1.38;;;20.80;57.20;;;;;;5028316;28;20107;-64
2022/11/12 09:13:47;;;;;;;2.20;1.40;;;20.80;57.20;;;;;;5032490;28;20098;-65
2022/11/12 09:16:13;;;;;;;1.95;1.33;;;20.80;57.30;;;;;;5034429;28;20484;-64
2022/11/12 09:18:39;;;;;;;1.60;1.20;;;20.80;57.20;;;;;;5036664;28;20033;-65
2022/11/12 09:21:07;;;;;;;1.80;1.40;;;20.80;57.20;;;;;;5038779;28;20030;-64
2022/11/12 09:23:34;;;;;;;1.95;1.48;;;20.80;57.20;;;;;;5034214;28;20037;-65
2022/11/12 09:26:00;;;;;;;1.98;1.40;;;20.80;57.30;;;;;;5037530;28;20036;-63
2022/11/12 09:28:26;;;;;;;2.03;1.30;;;20.80;57.30;;;;;;5037818;28;20047;-64
2022/11/12 09:30:53;;;;;;;2.03;1.40;;;20.80;57.30;;;;;;5042178;28;20030;-64
2022/11/12 09:33:22;;;;;;;2.15;1.50;;;20.80;57.30;;;;;;5033311;28;20139;-65
2022/11/12 09:35:48;;;;;;;2.30;1.55;;;20.80;57.30;;;;;;5024957;28;20068;-64
2022/11/12 09:38:14;;;;;;;2.28;1.60;;;20.80;57.30;;;;;;5041568;28;20029;-63
2022/11/12 09:40:51;;;;;;;2.20;1.40;;;20.80;57.30;;;;;;5035509;28;20117;-64
2022/11/12 09:43:32;;;;;;;2.30;1.50;;;20.70;57.30;;;;;;5040497;28;20366;-63
2022/11/12 09:46:07;;;;;;;2.03;1.40;;;20.80;57.30;;;;;;5034084;28;20026;-64
2022/11/12 09:48:43;;;;;;;2.28;1.35;;;20.80;57.30;;;;;;5028968;28;20026;-63
2022/11/12 09:51:23;;;;;;;2.28;1.48;;;20.70;57.30;;;;;;5032283;28;20033;-64
2022/11/12 09:54:25;;;;;;;2.80;1.40;;;20.70;57.80;;;;;;5029912;28;20040;-64
2022/11/12 09:56:52;;;;;;;2.40;1.40;;;20.70;57.30;;;;;;5031770;28;20477;-64
2022/11/12 09:59:18;;;;;;;2.08;1.40;;;20.70;57.30;;;;;;5034819;28;20025;-64
2022/11/12 10:01:56;;;;;;;1.98;1.42;;;20.70;57.40;;;;;;5036832;28;20369;-64
2022/11/12 10:04:43;;;;;;;2.15;1.52;;;20.70;57.40;;;;;;5038442;28;20104;-63
2022/11/12 10:07:22;;;;;;;1.83;1.20;;;20.70;57.40;;;;;;5039691;28;20773;-64
2022/11/12 10:09:58;;;;;;;2.10;1.40;;;20.70;57.40;;;;;;5032600;28;20392;-64
2022/11/12 10:12:30;;;;;;;4.03;1.48;;;20.80;57.50;;;;;;5031796;28;20652;-65
2022/11/12 10:18:15;;;;;;;2.72;1.50;;;20.70;57.40;;;;;;5033765;28;20076;-64
2022/11/12 10:21:18;;;;;;;2.42;1.52;;;20.70;57.40;;;;;;5035758;28;20523;-64
2022/11/12 10:23:47;;;;;;;2.38;1.55;;;20.70;57.40;;;;;;5029302;28;20355;-63
2022/11/12 10:26:18;;;;;;;2.25;1.40;;;20.70;57.50;;;;;;5025938;28;20523;-63
2022/11/12 10:29:07;;;;;;;3.60;1.52;;;20.70;57.50;;;;;;5032058;28;20091;-65
2022/11/12 10:31:33;;;;;;;2.20;1.40;;;20.70;57.50;;;;;;5029904;28;20030;-63
2022/11/12 10:34:19;;;;;;;2.47;1.50;;;20.70;57.50;;;;;;5036143;28;20044;-63
2022/11/12 10:36:49;;;;;;;2.50;1.70;;;20.70;57.50;;;;;;5041890;28;20034;-64
2022/11/12 10:39:37;;;;;;;2.28;1.52;;;20.70;57.60;;;;;;5034176;28;20388;-64
2022/11/12 10:42:13;;;;;;;2.43;1.53;;;20.70;57.60;;;;;;5034783;28;20021;-63
2022/11/12 10:44:42;;;;;;;1.95;1.40;;;20.70;57.60;;;;;;5037164;28;20030;-63
2022/11/12 10:47:22;;;;;;;1.88;1.30;;;20.70;57.90;;;;;;5030120;28;20036;-63
2022/11/12 10:50:18;;;;;;;2.78;1.58;;;20.70;58.40;;;;;;5027871;28;20120;-64
2022/11/12 10:53:00;;;;;;;3.47;1.50;;;20.70;58.20;;;;;;5031985;28;20033;-64
2022/11/12 10:55:35;;;;;;;1.88;1.30;;;20.70;58.20;;;;;;5038037;28;20040;-65
2022/11/12 10:58:10;;;;;;;2.40;1.30;;;20.70;58.30;;;;;;5034162;28;20021;-63
2022/11/12 11:00:50;;;;;;;2.17;1.40;;;20.80;58.30;;;;;;5031944;28;20476;-63
2022/11/12 11:03:22;;;;;;;2.40;1.42;;;20.80;58.00;;;;;;5028956;28;20021;-64
2022/11/12 11:05:53;;;;;;;1.73;1.20;;;20.80;58.10;;;;;;5033135;28;20044;-63
2022/11/12 11:08:39;;;;;;;1.90;1.10;;;20.90;58.00;;;;;;5030410;28;20496;-64
2022/11/12 11:11:17;;;;;;;2.75;1.30;;;20.90;58.00;;;;;;5028147;28;20044;-64
2022/11/12 11:13:43;;;;;;;1.90;1.40;;;20.90;57.80;;;;;;5041904;28;20677;-65
2022/11/12 11:16:20;;;;;;;2.47;1.25;;;20.90;57.70;;;;;;5036008;28;20021;-64
2022/11/12 11:18:56;;;;;;;1.90;1.20;;;21.00;57.70;;;;;;5029159;28;20029;-64
2022/11/12 11:21:54;;;;;;;3.03;1.42;;;21.00;57.60;;;;;;5030884;28;20078;-64
2022/11/12 11:24:39;;;;;;;2.20;1.45;;;21.10;57.60;;;;;;4968139;28;20038;-67
2022/11/12 11:27:32;;;;;;;2.58;1.48;;;21.10;57.40;;;;;;5031051;28;20029;-65
2022/11/12 11:30:26;;;;;;;2.58;1.50;;;21.20;57.30;;;;;;5031177;28;20104;-64
2022/11/12 11:33:23;;;;;;;2.33;1.65;;;21.20;57.10;;;;;;5037698;28;20037;-64
2022/11/12 11:35:56;;;;;;;2.70;1.42;;;21.30;57.00;;;;;;5040118;28;20064;-63
2022/11/12 11:38:33;;;;;;;2.42;1.60;;;21.30;56.90;;;;;;5029445;28;20053;-64
2022/11/12 11:41:20;;;;;;;2.70;1.40;;;21.30;57.00;;;;;;5032178;28;20029;-64
2022/11/12 11:44:28;;;;;;;2.85;1.58;;;21.30;57.00;;;;;;5032303;28;20022;-64
2022/11/12 11:47:24;;;;;;;2.33;1.67;;;21.30;57.00;;;;;;5026094;28;20159;-64
2022/11/12 11:50:21;;;;;;;2.30;1.40;;;21.30;56.90;;;;;;5034388;28;20218;-65
2022/11/12 11:53:12;;;;;;;2.85;1.67;;;21.40;56.90;;;;;;5036684;28;20519;-64
2022/11/12 11:55:49;;;;;;;2.65;1.40;;;21.40;56.80;;;;;;5029298;28;20021;-65
2022/11/12 11:58:49;;;;;;;1.67;1.30;;;21.40;56.70;;;;;;5034473;28;20025;-63
2022/11/12 12:01:41;;;;;;;2.13;1.30;;;21.40;56.70;;;;;;5028730;28;20393;-63
2022/11/12 12:04:37;;;;;;;2.15;1.40;;;21.40;56.60;;;;;;5011013;28;20463;-63
2022/11/12 12:07:34;;;;;;;3.40;1.40;;;21.40;56.60;;;;;;5032926;28;20472;-64
2022/11/12 12:10:32;;;;;;;2.47;1.52;;;21.50;56.60;;;;;;5036511;28;20388;-63
2022/11/12 12:13:23;;;;;;;3.25;1.40;;;21.50;56.60;;;;;;5034988;28;20120;-63
2022/11/12 12:16:21;;;;;;;2.17;1.30;;;21.50;56.60;;;;;;4996224;28;20072;-64
2022/11/12 12:19:15;;;;;;;2.08;1.30;;;21.50;56.60;;;;;;5036832;28;20091;-64
2022/11/12 12:21:45;;;;;;;1.98;1.25;;;21.50;56.60;;;;;;5036787;28;20025;-63
2022/11/12 12:24:18;;;;;;;1.83;1.10;;;21.50;56.60;;;;;;5038731;28;20040;-63
2022/11/12 12:26:49;;;;;;;2.42;1.30;;;21.50;56.60;;;;;;5034751;28;20119;-64
2022/11/12 12:29:32;;;;;;;2.50;1.60;;;21.50;56.60;;;;;;5038996;28;20036;-63
2022/11/12 12:32:02;;;;;;;3.00;1.52;;;21.50;56.60;;;;;;5036051;28;20396;-62
2022/11/12 12:34:36;;;;;;;3.58;1.50;;;21.50;56.60;;;;;;5033387;28;20397;-62
2022/11/12 12:37:09;;;;;;;1.65;1.05;;;21.50;56.60;;;;;;5034384;28;20081;-62
2022/11/12 12:39:47;;;;;;;2.03;1.20;;;21.50;56.60;;;;;;5038557;28;20366;-63
2022/11/12 12:42:24;;;;;;;2.33;1.40;;;21.40;56.50;;;;;;5037620;28;20063;-62
2022/11/12 12:45:00;;;;;;;2.13;1.30;;;21.40;56.50;;;;;;5037199;28;20025;-63
2022/11/12 12:47:37;;;;;;;1.90;1.17;;;21.40;56.50;;;;;;5034846;28;20041;-62
2022/11/12 12:50:10;;;;;;;2.20;1.33;;;21.40;56.50;;;;;;5039918;28;20033;-63
2022/11/12 12:53:04;;;;;;;2.17;1.30;;;21.40;56.50;;;;;;5032683;28;20025;-63
2022/11/12 12:55:33;;;;;;;2.35;1.20;;;21.40;56.50;;;;;;5039090;28;20116;-63
2022/11/12 12:57:59;;;;;;;;;;;21.40;56.50;;;;;;5038410;28;20024;-62
2022/11/12 13:00:37;;;;;;;1.75;1.13;;;21.40;56.50;;;;;;5032602;28;19909;-62
2022/11/12 13:03:04;;;;;;;2.45;1.48;;;21.40;56.50;;;;;;5039288;28;20108;-63
2022/11/12 13:05:35;;;;;;;2.17;1.30;;;21.40;56.50;;;;;;5033990;28;20116;-63
2022/11/12 13:08:09;;;;;;;2.05;1.30;;;21.40;56.50;;;;;;5030760;28;20055;-63
2022/11/12 13:10:40;;;;;;;2.05;1.20;;;21.40;56.50;;;;;;5029360;28;20416;-63
2022/11/12 13:13:18;;;;;;;2.08;1.30;;;21.40;56.60;;;;;;5031785;28;20032;-63
2022/11/12 13:15:49;;;;;;;2.10;1.10;;;21.40;56.60;;;;;;5038687;28;20038;-64
2022/11/12 13:18:50;;;;;;;2.60;1.50;;;21.40;56.60;;;;;;5039701;28;20480;-63
2022/11/12 13:21:18;;;;;;;2.40;1.30;;;21.40;56.60;;;;;;5032303;28;20017;-63
2022/11/12 13:24:05;;;;;;;2.72;1.30;;;21.40;56.60;;;;;;5040908;28;20460;-63
2022/11/12 13:26:53;;;;;;;2.03;1.27;;;21.40;56.70;;;;;;5039141;28;20104;-62